Corinthiakos — A8UL2 — position and weather

sailwx.info

Track history (hours):
 
Tides and Currents Weather Stations Pressure Air Temp Water Temp Dewpoint Dewpoint Depression Visibility Wind Speed Wind Dir Waves Ship Positions

Corinthiakos

Last reported at 2016-Jun-13 00:25 UTC. Time now 2016-Jun-25 21:35 UTC.
Position N 01°08' E 103°45'.
Warning: this ship's position is 12 days out of date.

Length 262 m; draft 12.7 m.

Type: Cargo ship. MMSI: 636014516.

Date/timePositionNaut miles runAvg speedWind from/ knotsBaromVisibWave heightAir tempDewpointWater temp
2016-Jun-13 00:25N 01°08' E 103°45'910.9
2016-Jun-12 23:33N 01°14' E 103°52'2 1.4
2016-Jun-12 22:28N 01°16' E 103°51'0 0.0
2016-Jun-12 21:31N 01°16' E 103°51'0 0.0
2016-Jun-12 20:31N 01°16' E 103°51'0 0.0
2016-Jun-12 19:31N 01°16' E 103°51'0 0.0
2016-Jun-12 18:31N 01°16' E 103°51'0 0.0
2016-Jun-12 17:28N 01°16' E 103°51'0 0.0
2016-Jun-12 16:31N 01°16' E 103°51'0 0.0
2016-Jun-12 15:34N 01°16' E 103°51'0 0.0
2016-Jun-12 14:34N 01°16' E 103°51'0 0.0
2016-Jun-12 13:34N 01°16' E 103°51'0 0.0
2016-Jun-12 12:34N 01°16' E 103°51'0 0.0
2016-Jun-12 11:28N 01°16' E 103°51'0 0.4
2016-Jun-12 10:33N 01°15' E 103°51'6 5.6
2016-Jun-12 09:33N 01°14' E 103°57'  
2016-Jun-09 04:33N 22°07' E 114°18'1411.4
2016-Jun-09 03:20N 22°16' E 114°07'1211.1
2016-Jun-09 02:14N 22°22' E 113°55'5 7.5
2016-Jun-09 01:33N 22°27' E 113°54'0 0.3
2016-Jun-09 00:21N 22°27' E 113°54'0 0.0
2016-Jun-08 23:21N 22°27' E 113°54'0 0.0
2016-Jun-08 22:33N 22°27' E 113°54'0 0.0
2016-Jun-08 20:33N 22°27' E 113°54'0 0.0
2016-Jun-08 19:17N 22°27' E 113°54'0 0.0
2016-Jun-08 18:29N 22°27' E 113°54'0 0.0
2016-Jun-08 17:29N 22°27' E 113°54'0 0.0
2016-Jun-08 16:29N 22°27' E 113°54'0 0.0
2016-Jun-08 15:29N 22°27' E 113°54'0 0.1
2016-Jun-08 14:31N 22°27' E 113°54'10 7.1
2016-Jun-08 13:05N 22°21' E 114°03'13 8.6
2016-Jun-08 11:32N 22°10' E 114°11'8 6.8
2016-Jun-08 10:25N 22°16' E 114°06'4 4.6
2016-Jun-08 09:32N 22°20' E 114°07'0 0.0
2016-Jun-08 08:32N 22°20' E 114°07'0 0.0
2016-Jun-08 07:23N 22°20' E 114°07'0 0.0
2016-Jun-08 06:33N 22°20' E 114°07'0 0.0
2016-Jun-08 05:27N 22°20' E 114°07'0 0.0
2016-Jun-08 04:33N 22°20' E 114°07'0 0.0
2016-Jun-08 03:33N 22°20' E 114°07'0 0.0
2016-Jun-08 02:30N 22°20' E 114°07'0 0.0
2016-Jun-08 01:18N 22°20' E 114°07'0 0.0
2016-Jun-08 00:30N 22°20' E 114°07'0 0.0
2016-Jun-07 23:33N 22°20' E 114°07'0 0.0
2016-Jun-07 22:28N 22°20' E 114°07'0 0.0
2016-Jun-07 21:32N 22°20' E 114°07'1 0.6
2016-Jun-07 20:33N 22°20' E 114°07'11 8.2
2016-Jun-07 19:14N 22°10' E 114°13'912.8
2016-Jun-07 18:33N 22°08' E 114°22'29819.4
2016-Jun-07 03:09N 22°27' E 119°43'1219.4
2016-Jun-07 02:33N 22°29' E 119°55'1919.5
2016-Jun-07 01:33N 22°33' E 120°16'3 2.6
2016-Jun-07 00:32N 22°35' E 120°18'0 0.0
2016-Jun-06 23:32N 22°35' E 120°18'0 0.0
2016-Jun-06 22:32N 22°35' E 120°18'0 0.0
2016-Jun-06 21:20N 22°35' E 120°18'0 0.1
2016-Jun-06 20:33N 22°35' E 120°18'0 0.1
2016-Jun-06 19:28N 22°35' E 120°18'0 0.0
2016-Jun-06 18:32N 22°35' E 120°18'0 0.0
2016-Jun-06 17:32N 22°35' E 120°18'0 0.0
2016-Jun-06 16:23N 22°35' E 120°18'0 0.0
2016-Jun-06 15:30N 22°35' E 120°18'0 0.0
2016-Jun-06 14:31N 22°35' E 120°18'0 0.0
2016-Jun-06 13:26N 22°35' E 120°18'0 0.0
2016-Jun-06 12:33N 22°35' E 120°18'0 0.0
2016-Jun-06 11:32N 22°35' E 120°18'0 0.0
2016-Jun-06 10:27N 22°35' E 120°18'0 0.0
2016-Jun-06 09:33N 22°35' E 120°18'0 0.0
2016-Jun-06 08:33N 22°35' E 120°18'0 0.0
2016-Jun-06 07:33N 22°35' E 120°18'0 0.0
2016-Jun-06 06:33N 22°35' E 120°18'0 0.1
2016-Jun-06 05:30N 22°35' E 120°18'0 0.0
2016-Jun-06 04:31N 22°35' E 120°18'0 0.1
2016-Jun-06 03:30N 22°35' E 120°18'0 0.0
2016-Jun-06 02:33N 22°35' E 120°18'0 0.0
2016-Jun-06 01:28N 22°35' E 120°18'0 0.0
2016-Jun-06 00:17N 22°35' E 120°18'0 0.0
2016-Jun-05 23:33N 22°35' E 120°18'0 0.0
2016-Jun-05 22:33N 22°35' E 120°18'0 0.0
2016-Jun-05 21:28N 22°35' E 120°18'0 0.0
2016-Jun-05 20:25N 22°35' E 120°18'2 2.0
2016-Jun-05 19:33N 22°33' E 120°18'4 4.5
2016-Jun-05 18:33N 22°32' E 120°13'1616.2
2016-Jun-05 17:33N 22°28' E 119°56'  
Track history (hours):
 
Tides and Currents Weather Stations Pressure Air Temp Water Temp Dewpoint Dewpoint Depression Visibility Wind Speed Wind Dir Waves Ship Positions

Corinthiakos

Last reported at 2016-Jun-13 00:25 UTC. Time now 2016-Jun-25 21:35 UTC.
Position N 01°08' E 103°45'.
Warning: this ship's position is 12 days out of date.

Length 262 m; draft 12.7 m.

Type: Cargo ship. MMSI: 636014516.

Date/timePositionNaut miles runAvg speedWind from/ knotsBaromVisibWave heightAir tempDewpointWater temp
2016-Jun-13 00:25N 01°08' E 103°45'910.9
2016-Jun-12 23:33N 01°14' E 103°52'2 1.4
2016-Jun-12 22:28N 01°16' E 103°51'0 0.0
2016-Jun-12 21:31N 01°16' E 103°51'0 0.0
2016-Jun-12 20:31N 01°16' E 103°51'0 0.0
2016-Jun-12 19:31N 01°16' E 103°51'0 0.0
2016-Jun-12 18:31N 01°16' E 103°51'0 0.0
2016-Jun-12 17:28N 01°16' E 103°51'0 0.0
2016-Jun-12 16:31N 01°16' E 103°51'0 0.0
2016-Jun-12 15:34N 01°16' E 103°51'0 0.0
2016-Jun-12 14:34N 01°16' E 103°51'0 0.0
2016-Jun-12 13:34N 01°16' E 103°51'0 0.0
2016-Jun-12 12:34N 01°16' E 103°51'0 0.0
2016-Jun-12 11:28N 01°16' E 103°51'0 0.4
2016-Jun-12 10:33N 01°15' E 103°51'6 5.6
2016-Jun-12 09:33N 01°14' E 103°57'  
2016-Jun-09 04:33N 22°07' E 114°18'1411.4
2016-Jun-09 03:20N 22°16' E 114°07'1211.1
2016-Jun-09 02:14N 22°22' E 113°55'5 7.5
2016-Jun-09 01:33N 22°27' E 113°54'0 0.3
2016-Jun-09 00:21N 22°27' E 113°54'0 0.0
2016-Jun-08 23:21N 22°27' E 113°54'0 0.0
2016-Jun-08 22:33N 22°27' E 113°54'0 0.0
2016-Jun-08 20:33N 22°27' E 113°54'0 0.0
2016-Jun-08 19:17N 22°27' E 113°54'0 0.0
2016-Jun-08 18:29N 22°27' E 113°54'0 0.0
2016-Jun-08 17:29N 22°27' E 113°54'0 0.0
2016-Jun-08 16:29N 22°27' E 113°54'0 0.0
2016-Jun-08 15:29N 22°27' E 113°54'0 0.1
2016-Jun-08 14:31N 22°27' E 113°54'10 7.1
2016-Jun-08 13:05N 22°21' E 114°03'13 8.6
2016-Jun-08 11:32N 22°10' E 114°11'8 6.8
2016-Jun-08 10:25N 22°16' E 114°06'4 4.6
2016-Jun-08 09:32N 22°20' E 114°07'0 0.0
2016-Jun-08 08:32N 22°20' E 114°07'0 0.0
2016-Jun-08 07:23N 22°20' E 114°07'0 0.0
2016-Jun-08 06:33N 22°20' E 114°07'0 0.0
2016-Jun-08 05:27N 22°20' E 114°07'0 0.0
2016-Jun-08 04:33N 22°20' E 114°07'0 0.0
2016-Jun-08 03:33N 22°20' E 114°07'0 0.0
2016-Jun-08 02:30N 22°20' E 114°07'0 0.0
2016-Jun-08 01:18N 22°20' E 114°07'0 0.0
2016-Jun-08 00:30N 22°20' E 114°07'0 0.0
2016-Jun-07 23:33N 22°20' E 114°07'0 0.0
2016-Jun-07 22:28N 22°20' E 114°07'0 0.0
2016-Jun-07 21:32N 22°20' E 114°07'1 0.6
2016-Jun-07 20:33N 22°20' E 114°07'11 8.2
2016-Jun-07 19:14N 22°10' E 114°13'912.8
2016-Jun-07 18:33N 22°08' E 114°22'29819.4
2016-Jun-07 03:09N 22°27' E 119°43'1219.4
2016-Jun-07 02:33N 22°29' E 119°55'1919.5
2016-Jun-07 01:33N 22°33' E 120°16'3 2.6
2016-Jun-07 00:32N 22°35' E 120°18'0 0.0
2016-Jun-06 23:32N 22°35' E 120°18'0 0.0
2016-Jun-06 22:32N 22°35' E 120°18'0 0.0
2016-Jun-06 21:20N 22°35' E 120°18'0 0.1
2016-Jun-06 20:33N 22°35' E 120°18'0 0.1
2016-Jun-06 19:28N 22°35' E 120°18'0 0.0
2016-Jun-06 18:32N 22°35' E 120°18'0 0.0
2016-Jun-06 17:32N 22°35' E 120°18'0 0.0
2016-Jun-06 16:23N 22°35' E 120°18'0 0.0
2016-Jun-06 15:30N 22°35' E 120°18'0 0.0
2016-Jun-06 14:31N 22°35' E 120°18'0 0.0
2016-Jun-06 13:26N 22°35' E 120°18'0 0.0
2016-Jun-06 12:33N 22°35' E 120°18'0 0.0
2016-Jun-06 11:32N 22°35' E 120°18'0 0.0
2016-Jun-06 10:27N 22°35' E 120°18'0 0.0
2016-Jun-06 09:33N 22°35' E 120°18'0 0.0
2016-Jun-06 08:33N 22°35' E 120°18'0 0.0
2016-Jun-06 07:33N 22°35' E 120°18'0 0.0
2016-Jun-06 06:33N 22°35' E 120°18'0 0.1
2016-Jun-06 05:30N 22°35' E 120°18'0 0.0
2016-Jun-06 04:31N 22°35' E 120°18'0 0.1
2016-Jun-06 03:30N 22°35' E 120°18'0 0.0
2016-Jun-06 02:33N 22°35' E 120°18'0 0.0
2016-Jun-06 01:28N 22°35' E 120°18'0 0.0
2016-Jun-06 00:17N 22°35' E 120°18'0 0.0
2016-Jun-05 23:33N 22°35' E 120°18'0 0.0
2016-Jun-05 22:33N 22°35' E 120°18'0 0.0
2016-Jun-05 21:28N 22°35' E 120°18'0 0.0
2016-Jun-05 20:25N 22°35' E 120°18'2 2.0
2016-Jun-05 19:33N 22°33' E 120°18'4 4.5
2016-Jun-05 18:33N 22°32' E 120°13'1616.2
2016-Jun-05 17:33N 22°28' E 119°56'  

Dump ship's entire track history